Weather at Fertőszentmiklós Airfield

Public forecast

Using degrees Celsius for public forecast. Weather courtesy of forecast.io.

Closest aviation weather report (METAR) to Fertőszentmiklós Airfield

Closest report is Wiener Neustadt East Airport, 28.3 nm (52.5 km) WNW.

2024/05/26 14:00 (retrieved 52 minutes ago)

LOAN 261400Z 12007KT 9999 FEW030CB SCT050

Closest aviation forecast (TAF) to Fertőszentmiklós Airfield

Closest forecast is Pápa Air Base, 29.7 nm (55.0 km) ESE.

2024/05/26 12:00 (retrieved 3 hours ago)

TAF LHPA 261115Z 2612/2712 VRB03KT 9999 SCT035 SCT200 PROB40 TEMPO 2613/2619 VRB20G30KT 5000 SHRA TSRA SCT030CB BKN050TCU BKN200 BECMG 2621/2701 03006KT PROB40 TEMPO 2701/2706 VRB03KT 8000 MIFG NSC PROB40 TEMPO 2709/2712 VRB20G30KT 6000 SHRA TSRA SCT030CB BKN040